createdAt,value
2023-02-16T00:00:21.251Z,100.00
2023-02-16T00:02:48.629Z,100.00
2023-02-16T00:05:36.434Z,100.00
2023-02-16T00:08:03.059Z,100.00
2023-02-16T00:10:35.222Z,100.00
2023-02-16T00:13:21.415Z,100.00
2023-02-16T00:15:47.971Z,100.00
2023-02-16T00:18:21.604Z,100.00
2023-02-16T00:20:54.632Z,100.00
2023-02-16T00:23:21.417Z,100.00
2023-02-16T00:25:47.989Z,100.00
2023-02-16T00:28:22.509Z,100.00
2023-02-16T00:30:50.650Z,100.00
2023-02-16T00:33:19.682Z,100.00
2023-02-16T00:35:56.094Z,100.00
2023-02-16T00:38:26.282Z,100.00
2023-02-16T00:40:52.758Z,100.00
2023-02-16T00:43:26.187Z,100.00
2023-02-16T00:45:53.509Z,100.00
2023-02-16T00:48:20.341Z,100.00
2023-02-16T00:50:53.607Z,100.00
2023-02-16T00:53:20.202Z,100.00
2023-02-16T00:55:46.760Z,100.00
2023-02-16T00:58:26.489Z,100.00
2023-02-16T01:00:55.912Z,100.00
2023-02-16T01:03:28.386Z,100.00
2023-02-16T01:06:14.639Z,100.00
2023-02-16T01:09:02.881Z,100.00
2023-02-16T01:11:29.805Z,100.00
2023-02-16T01:13:57.261Z,100.00
2023-02-16T01:16:27.816Z,100.00
2023-02-16T01:18:56.340Z,100.00
2023-02-16T01:21:22.892Z,100.00
2023-02-16T01:23:51.640Z,100.00
2023-02-16T01:26:20.208Z,100.00
2023-02-16T01:28:47.568Z,100.00
2023-02-16T01:31:19.493Z,100.00
2023-02-16T01:33:46.040Z,100.00
2023-02-16T01:36:44.852Z,100.00
2023-02-16T01:39:17.535Z,100.00
2023-02-16T01:42:29.751Z,100.00
2023-02-16T01:45:01.671Z,100.00
2023-02-16T01:47:36.505Z,100.00
2023-02-16T01:50:17.751Z,100.00
2023-02-16T01:52:55.457Z,100.00
2023-02-16T01:55:37.281Z,100.00
2023-02-16T01:58:12.888Z,100.00
2023-02-16T02:00:54.800Z,100.00
2023-02-16T02:04:03.072Z,100.00
2023-02-16T02:06:34.624Z,100.00
2023-02-16T02:09:10.841Z,100.00
2023-02-16T02:11:45.505Z,100.00
2023-02-16T02:14:17.851Z,100.00
2023-02-16T02:17:07.352Z,100.00
2023-02-16T02:19:47.686Z,100.00
2023-02-16T02:22:41.804Z,100.00
2023-02-16T02:25:30.538Z,100.00
2023-02-16T02:28:15.051Z,100.00
2023-02-16T02:30:53.662Z,100.00
2023-02-16T02:33:37.608Z,100.00
2023-02-16T02:36:28.936Z,100.00
2023-02-16T02:39:19.801Z,100.00
2023-02-16T02:42:12.770Z,100.00
2023-02-16T02:44:46.902Z,100.00
2023-02-16T02:47:13.695Z,100.00
2023-02-16T02:49:42.229Z,100.00
2023-02-16T02:52:09.126Z,100.00
2023-02-16T02:54:59.169Z,100.00
2023-02-16T02:57:52.056Z,100.00
2023-02-16T03:00:44.484Z,100.00
2023-02-16T03:03:18.597Z,100.00
2023-02-16T03:05:55.373Z,100.00
2023-02-16T03:08:25.313Z,100.00
2023-02-16T03:11:18.591Z,100.00
2023-02-16T03:13:51.474Z,100.00
2023-02-16T03:16:26.413Z,100.00
2023-02-16T03:19:14.932Z,100.00
2023-02-16T03:22:01.324Z,100.00
2023-02-16T03:24:49.673Z,100.00
2023-02-16T03:27:42.334Z,100.00
2023-02-16T03:30:12.728Z,100.00
2023-02-16T03:32:39.780Z,100.00
2023-02-16T03:35:07.397Z,100.00
2023-02-16T03:37:34.336Z,100.00
2023-02-16T03:40:20.199Z,100.00
2023-02-16T03:42:50.634Z,100.00
2023-02-16T03:45:20.689Z,100.00
2023-02-16T03:47:47.533Z,100.00
2023-02-16T03:50:14.017Z,100.00
2023-02-16T03:52:40.691Z,100.00
2023-02-16T03:55:09.626Z,100.00
2023-02-16T03:57:36.252Z,100.00
2023-02-16T04:00:03.121Z,100.00
2023-02-16T04:02:30.316Z,100.00
2023-02-16T04:04:56.868Z,100.00
2023-02-16T04:07:23.940Z,100.00
2023-02-16T04:09:52.180Z,100.00
2023-02-16T04:12:37.008Z,100.00
2023-02-16T04:15:06.873Z,100.00
2023-02-16T04:17:33.454Z,100.00
2023-02-16T04:20:01.699Z,100.00
2023-02-16T04:22:30.405Z,100.00
2023-02-16T04:24:56.962Z,100.00
2023-02-16T04:27:23.609Z,100.00
2023-02-16T04:29:50.261Z,100.00
2023-02-16T04:32:17.070Z,100.00
2023-02-16T04:34:43.596Z,100.00
2023-02-16T04:37:12.311Z,100.00
2023-02-16T04:39:38.812Z,100.00
2023-02-16T04:42:05.500Z,100.00
2023-02-16T04:44:32.160Z,100.00
2023-02-16T04:46:58.652Z,100.00
2023-02-16T04:49:25.203Z,100.00
2023-02-16T04:52:00.282Z,100.00
2023-02-16T04:54:27.919Z,100.00
2023-02-16T04:56:54.786Z,100.00
2023-02-16T04:59:23.337Z,100.00
2023-02-16T05:01:50.212Z,100.00
2023-02-16T05:04:16.802Z,100.00
2023-02-16T05:06:43.401Z,100.00
2023-02-16T05:09:11.812Z,100.00
2023-02-16T05:11:57.196Z,100.00
2023-02-16T05:14:45.436Z,100.00
2023-02-16T05:17:25.300Z,100.00
2023-02-16T05:19:55.033Z,100.00
2023-02-16T05:22:22.082Z,100.00
2023-02-16T05:24:49.425Z,100.00
2023-02-16T05:27:20.719Z,100.00
2023-02-16T05:29:54.645Z,100.00
2023-02-16T05:32:21.876Z,100.00
2023-02-16T05:34:48.524Z,100.00
2023-02-16T05:37:19.159Z,100.00
2023-02-16T05:39:45.749Z,100.00
2023-02-16T05:42:12.558Z,100.00
2023-02-16T05:44:41.361Z,100.00
2023-02-16T05:47:07.988Z,100.00
2023-02-16T05:49:34.649Z,100.00
2023-02-16T05:52:02.035Z,100.00
2023-02-16T05:54:28.714Z,100.00
2023-02-16T05:56:55.386Z,100.00
2023-02-16T05:59:23.716Z,100.00
2023-02-16T06:01:52.173Z,100.00
2023-02-16T06:04:20.506Z,100.00
2023-02-16T06:06:47.643Z,100.00
2023-02-16T06:09:14.379Z,100.00
2023-02-16T06:11:40.903Z,100.00
2023-02-16T06:14:09.568Z,100.00
2023-02-16T06:16:38.374Z,100.00
2023-02-16T06:19:05.850Z,100.00
2023-02-16T06:21:35.286Z,100.00
2023-02-16T06:24:02.092Z,100.00
2023-02-16T06:26:30.955Z,100.00
2023-02-16T06:28:59.230Z,100.00
2023-02-16T06:31:26.138Z,100.00
2023-02-16T06:33:53.650Z,100.00
2023-02-16T06:36:24.547Z,100.00
2023-02-16T06:38:51.224Z,100.00
2023-02-16T06:41:33.365Z,100.00
2023-02-16T06:44:07.248Z,100.00
2023-02-16T06:46:36.376Z,100.00
2023-02-16T06:49:07.247Z,100.00
2023-02-16T06:51:34.165Z,100.00
2023-02-16T06:54:02.470Z,100.00
2023-02-16T06:56:29.099Z,100.00
2023-02-16T06:58:55.916Z,100.00
2023-02-16T07:01:26.300Z,100.00
2023-02-16T07:03:54.472Z,100.00
2023-02-16T07:06:23.221Z,100.00
2023-02-16T07:08:50.495Z,100.00
2023-02-16T07:11:17.720Z,100.00
2023-02-16T07:13:44.200Z,100.00
2023-02-16T07:16:11.209Z,100.00
2023-02-16T07:18:37.869Z,100.00
2023-02-16T07:21:04.989Z,100.00
2023-02-16T07:23:31.878Z,100.00
2023-02-16T07:25:58.484Z,100.00
2023-02-16T07:28:27.343Z,100.00
2023-02-16T07:30:54.024Z,100.00
2023-02-16T07:36:13.168Z,100.00
2023-02-16T07:38:42.020Z,100.00
2023-02-16T07:41:09.893Z,100.00
2023-02-16T07:43:38.038Z,100.00
2023-02-16T07:46:08.457Z,100.00
2023-02-16T07:48:35.693Z,100.00
2023-02-16T07:51:04.985Z,100.00
2023-02-16T07:53:31.686Z,100.00
2023-02-16T07:56:00.144Z,100.00
2023-02-16T07:58:29.611Z,100.00
2023-02-16T08:01:10.054Z,100.00
2023-02-16T08:03:37.257Z,100.00
2023-02-16T08:06:04.736Z,100.00
2023-02-16T08:08:32.343Z,100.00
2023-02-16T08:11:01.373Z,100.00
2023-02-16T08:13:27.893Z,100.00
2023-02-16T08:15:54.371Z,100.00
2023-02-16T08:18:22.613Z,100.00
2023-02-16T08:21:03.210Z,100.00
2023-02-16T08:23:37.700Z,100.00
2023-02-16T08:26:11.517Z,100.00
2023-02-16T08:28:38.303Z,100.00
2023-02-16T08:31:07.851Z,100.00
2023-02-16T08:33:34.830Z,100.00
2023-02-16T08:36:02.483Z,100.00
2023-02-16T08:38:38.815Z,100.00
2023-02-16T08:41:05.708Z,100.00
2023-02-16T08:43:32.553Z,100.00
2023-02-16T08:45:59.185Z,100.00
2023-02-16T08:48:28.819Z,100.00
2023-02-16T08:50:55.553Z,100.00
2023-02-16T08:53:23.325Z,100.00
2023-02-16T08:55:54.527Z,100.00
2023-02-16T08:58:21.964Z,100.00
2023-02-16T09:00:51.475Z,100.00
2023-02-16T09:03:19.172Z,100.00
2023-02-16T09:05:46.584Z,100.00
2023-02-16T09:08:16.087Z,100.00
2023-02-16T09:10:43.044Z,100.00
2023-02-16T09:13:14.979Z,100.00
2023-02-16T09:15:43.359Z,100.00
2023-02-16T09:18:12.564Z,100.00
2023-02-16T09:20:41.328Z,100.00
2023-02-16T09:23:12.379Z,100.00
2023-02-16T09:25:41.454Z,100.00
2023-02-16T09:28:10.859Z,100.00
2023-02-16T09:30:43.933Z,100.00
2023-02-16T09:33:10.969Z,100.00
2023-02-16T09:35:40.827Z,100.00
2023-02-16T09:38:08.018Z,100.00
2023-02-16T09:40:36.683Z,97.95
2023-02-16T09:43:08.656Z,98.03
2023-02-16T09:45:49.403Z,97.56
2023-02-16T09:48:44.678Z,97.49
2023-02-16T09:51:20.931Z,97.45
2023-02-16T09:53:56.705Z,92.79
2023-02-16T09:56:37.904Z,94.23
2023-02-16T09:59:16.506Z,91.62
2023-02-16T10:02:07.412Z,82.16
2023-02-16T10:04:46.312Z,80.65
2023-02-16T10:07:24.636Z,78.81
2023-02-16T10:09:58.396Z,75.65
2023-02-16T10:12:29.978Z,79.71
2023-02-16T10:15:09.471Z,80.01
2023-02-16T10:17:35.892Z,80.39
2023-02-16T10:20:12.008Z,82.43
2023-02-16T10:22:51.461Z,83.17
2023-02-16T10:25:58.357Z,86.07
2023-02-16T10:28:46.483Z,87.25
2023-02-16T10:31:32.551Z,86.89
2023-02-16T10:34:23.899Z,88.51
2023-02-16T10:37:14.830Z,85.20
2023-02-16T10:40:12.223Z,86.94
2023-02-16T10:42:46.309Z,86.69
2023-02-16T10:45:31.971Z,84.91
2023-02-16T10:48:00.800Z,84.79
2023-02-16T10:50:39.033Z,85.60
2023-02-16T10:53:44.462Z,85.20
2023-02-16T10:56:38.252Z,83.30
2023-02-16T10:59:12.469Z,83.85
2023-02-16T11:01:44.171Z,83.43
2023-02-16T11:04:39.465Z,83.13
2023-02-16T11:07:12.036Z,83.74
2023-02-16T11:09:43.533Z,83.64
2023-02-16T11:12:24.372Z,84.87
2023-02-16T11:14:57.577Z,83.98
2023-02-16T11:17:25.553Z,84.70
2023-02-16T11:19:56.801Z,85.51
2023-02-16T11:22:40.780Z,81.97
2023-02-16T11:25:23.508Z,82.57
2023-02-16T11:27:57.866Z,80.40
2023-02-16T11:30:32.758Z,79.72
2023-02-16T11:33:05.763Z,80.16
2023-02-16T11:35:42.274Z,81.07
2023-02-16T11:38:26.217Z,79.44
2023-02-16T11:40:57.447Z,80.24
2023-02-16T11:43:28.622Z,78.91
2023-02-16T11:46:16.832Z,76.87
2023-02-16T11:48:44.377Z,76.18
2023-02-16T11:51:15.622Z,75.29
2023-02-16T11:53:44.386Z,73.84
2023-02-16T11:56:24.679Z,73.12
2023-02-16T11:59:03.389Z,68.88
2023-02-16T12:01:50.114Z,70.39
2023-02-16T12:04:44.896Z,71.46
2023-02-16T12:07:22.101Z,71.49
2023-02-16T12:09:57.225Z,65.70
2023-02-16T12:12:36.317Z,64.55
2023-02-16T12:15:12.950Z,64.58
2023-02-16T12:17:43.448Z,65.49
2023-02-16T12:20:30.989Z,63.80
2023-02-16T12:23:11.013Z,63.38
2023-02-16T12:25:42.420Z,64.55
2023-02-16T12:28:18.692Z,63.30
2023-02-16T12:31:07.330Z,60.26
2023-02-16T12:33:49.864Z,59.86
2023-02-16T12:36:47.019Z,59.00
2023-02-16T12:39:29.375Z,59.18
2023-02-16T12:42:24.263Z,53.94
2023-02-16T12:44:55.161Z,56.40
2023-02-16T12:47:29.994Z,56.78
2023-02-16T12:50:02.008Z,55.70
2023-02-16T12:52:41.784Z,54.57
2023-02-16T12:55:36.314Z,55.72
2023-02-16T12:58:22.436Z,56.49
2023-02-16T13:01:00.446Z,55.73
2023-02-16T13:03:51.631Z,55.42
2023-02-16T13:06:48.960Z,56.31
2023-02-16T13:09:44.146Z,54.93
2023-02-16T13:12:45.072Z,49.48
2023-02-16T13:15:35.832Z,51.25
2023-02-16T13:18:07.516Z,53.59
2023-02-16T13:20:34.143Z,53.72
2023-02-16T13:23:27.768Z,52.76
2023-02-16T13:26:22.444Z,50.35
2023-02-16T13:32:47.308Z,50.08
2023-02-16T13:35:30.265Z,51.88
2023-02-16T13:38:04.591Z,52.46
2023-02-16T13:40:57.167Z,48.29
2023-02-16T13:43:30.989Z,51.20
2023-02-16T13:45:59.492Z,51.79
2023-02-16T13:48:31.795Z,52.57
2023-02-16T13:51:05.204Z,52.40
2023-02-16T13:53:43.510Z,51.92
2023-02-16T13:56:31.134Z,49.70
2023-02-16T13:59:17.496Z,51.60
2023-02-16T14:01:47.403Z,52.19
2023-02-16T14:04:35.575Z,48.18
2023-02-16T14:07:02.035Z,51.82
2023-02-16T14:09:37.788Z,49.67
2023-02-16T14:12:14.313Z,44.51
2023-02-16T14:14:43.612Z,51.92
2023-02-16T14:17:22.402Z,51.48
2023-02-16T14:20:00.415Z,53.10
2023-02-16T14:22:53.308Z,50.57
2023-02-16T14:25:19.862Z,53.36
2023-02-16T14:27:49.944Z,53.67
2023-02-16T14:30:38.991Z,53.41
2023-02-16T14:33:18.088Z,52.13
2023-02-16T14:36:03.052Z,51.67
2023-02-16T14:38:38.123Z,53.02
2023-02-16T14:41:11.364Z,52.51
2023-02-16T14:43:45.743Z,52.08
2023-02-16T14:46:30.969Z,50.64
2023-02-16T14:49:38.071Z,47.78
2023-02-16T14:52:06.286Z,50.96
2023-02-16T14:55:11.362Z,49.15
2023-02-16T14:57:52.439Z,51.38
2023-02-16T15:00:30.626Z,51.87
2023-02-16T15:03:23.460Z,48.65
2023-02-16T15:05:57.280Z,52.39
2023-02-16T15:08:36.880Z,52.43
2023-02-16T15:11:16.132Z,51.82
2023-02-16T15:13:46.480Z,53.32
2023-02-16T15:16:16.417Z,53.67
2023-02-16T15:18:54.500Z,53.42
2023-02-16T15:21:25.035Z,53.86
2023-02-16T15:23:54.501Z,54.41
2023-02-16T15:26:25.177Z,54.45
2023-02-16T15:28:58.068Z,54.27
2023-02-16T15:31:33.430Z,53.64
2023-02-16T15:34:05.742Z,53.33
2023-02-16T15:36:38.467Z,53.60
2023-02-16T15:39:11.752Z,53.54
2023-02-16T15:41:43.798Z,54.45
2023-02-16T15:44:37.086Z,53.20
2023-02-16T15:47:08.272Z,55.09
2023-02-16T15:49:38.990Z,55.41
2023-02-16T15:52:16.468Z,55.87
2023-02-16T15:54:44.925Z,55.50
2023-02-16T15:57:32.517Z,55.49
2023-02-16T16:00:19.573Z,55.51
2023-02-16T16:02:52.964Z,56.61
2023-02-16T16:05:25.674Z,57.52
2023-02-16T16:07:53.098Z,58.07
2023-02-16T16:10:33.935Z,58.21
2023-02-16T16:13:06.307Z,58.42
2023-02-16T16:15:41.729Z,58.86
2023-02-16T16:18:46.624Z,57.60
2023-02-16T16:21:24.609Z,58.81
2023-02-16T16:24:03.628Z,59.49
2023-02-16T16:26:35.485Z,60.20
2023-02-16T16:29:05.677Z,61.29
2023-02-16T16:31:35.032Z,61.40
2023-02-16T16:34:04.720Z,61.77
2023-02-16T16:36:34.666Z,62.42
2023-02-16T16:39:18.606Z,62.25
2023-02-16T16:42:07.969Z,62.74
2023-02-16T16:44:45.605Z,62.05
2023-02-16T16:47:23.971Z,62.69
2023-02-16T16:49:52.441Z,63.09
2023-02-16T16:52:36.075Z,62.82
2023-02-16T16:55:20.372Z,63.09
2023-02-16T16:57:48.478Z,64.22
2023-02-16T17:00:16.220Z,64.45
2023-02-16T17:02:45.323Z,64.77
2023-02-16T17:05:12.208Z,65.02
2023-02-16T17:07:38.738Z,65.70
2023-02-16T17:10:12.153Z,65.97
2023-02-16T17:12:38.661Z,66.65
2023-02-16T17:15:08.027Z,66.86
2023-02-16T17:17:36.597Z,67.43
2023-02-16T17:20:03.515Z,68.25
2023-02-16T17:22:32.745Z,69.08
2023-02-16T17:24:59.430Z,69.10
2023-02-16T17:27:25.922Z,69.54
2023-02-16T17:29:52.640Z,70.59
2023-02-16T17:32:24.344Z,71.40
2023-02-16T17:34:50.807Z,72.21
2023-02-16T17:37:19.546Z,72.70
2023-02-16T17:39:46.294Z,73.70
2023-02-16T17:42:13.039Z,74.48
2023-02-16T17:44:39.506Z,74.58
2023-02-16T17:47:07.794Z,75.27
2023-02-16T17:49:34.297Z,74.51
2023-02-16T17:52:00.832Z,74.92
2023-02-16T17:54:33.994Z,75.10
2023-02-16T17:57:00.497Z,75.64
2023-02-16T17:59:29.258Z,76.40
2023-02-16T18:02:05.858Z,77.66
2023-02-16T18:04:33.039Z,78.04
2023-02-16T18:06:59.679Z,78.53
2023-02-16T18:09:26.252Z,78.48
2023-02-16T18:11:52.846Z,77.65
2023-02-16T18:14:19.378Z,77.42
2023-02-16T18:16:53.401Z,77.20
2023-02-16T18:19:20.206Z,76.28
2023-02-16T18:21:46.704Z,76.54
2023-02-16T18:24:13.252Z,76.95
2023-02-16T18:26:39.786Z,77.19
2023-02-16T18:32:01.249Z,76.91
2023-02-16T18:34:27.856Z,77.00
2023-02-16T18:36:54.393Z,76.97
2023-02-16T18:39:20.992Z,77.10
2023-02-16T18:41:47.460Z,77.88
2023-02-16T18:44:14.171Z,77.67
2023-02-16T18:46:40.843Z,77.47
2023-02-16T18:49:07.383Z,77.78
2023-02-16T18:51:33.903Z,78.03
2023-02-16T18:54:00.464Z,78.73
2023-02-16T18:56:27.763Z,78.34
2023-02-16T18:58:54.510Z,78.29
2023-02-16T19:01:28.817Z,78.52
2023-02-16T19:03:56.165Z,79.00
2023-02-16T19:06:22.869Z,78.69
2023-02-16T19:08:54.145Z,79.01
2023-02-16T19:11:21.250Z,79.65
2023-02-16T19:13:48.445Z,79.21
2023-02-16T19:16:16.231Z,80.06
2023-02-16T19:18:42.868Z,79.88
2023-02-16T19:21:13.803Z,79.22
2023-02-16T19:23:42.618Z,79.69
2023-02-16T19:26:12.978Z,80.38
2023-02-16T19:28:39.967Z,80.30
2023-02-16T19:31:09.368Z,80.14
2023-02-16T19:33:36.310Z,80.39
2023-02-16T19:36:07.670Z,81.12
2023-02-16T19:38:34.592Z,81.35
2023-02-16T19:41:01.115Z,81.43
2023-02-16T19:43:27.594Z,81.06
2023-02-16T19:45:59.420Z,79.90
2023-02-16T19:48:25.969Z,79.89
2023-02-16T19:50:57.672Z,79.34
2023-02-16T19:53:30.391Z,79.00
2023-02-16T19:55:57.350Z,79.63
2023-02-16T19:58:25.614Z,79.33
2023-02-16T20:00:52.746Z,80.18
2023-02-16T20:03:21.457Z,80.08
2023-02-16T20:05:48.078Z,80.86
2023-02-16T20:08:14.654Z,80.61
2023-02-16T20:10:47.875Z,80.92
2023-02-16T20:13:14.312Z,81.48
2023-02-16T20:15:46.702Z,81.90
2023-02-16T20:18:20.133Z,81.64
2023-02-16T20:20:59.219Z,81.56
2023-02-16T20:23:26.962Z,82.24
2023-02-16T20:25:54.032Z,82.09
2023-02-16T20:28:24.548Z,82.34
2023-02-16T20:30:52.628Z,82.58
2023-02-16T20:33:20.456Z,83.95
2023-02-16T20:35:49.500Z,84.15
2023-02-16T20:38:16.864Z,83.85
2023-02-16T20:40:44.003Z,83.67
2023-02-16T20:43:11.736Z,83.95
2023-02-16T20:45:42.948Z,84.03
2023-02-16T20:48:12.227Z,83.97
2023-02-16T20:50:38.845Z,84.22
2023-02-16T20:53:05.968Z,84.21
2023-02-16T20:55:32.842Z,84.03
2023-02-16T20:58:00.368Z,84.68
2023-02-16T21:00:27.841Z,84.42
2023-02-16T21:02:54.492Z,85.04
2023-02-16T21:05:22.817Z,85.03
2023-02-16T21:07:50.104Z,83.92
2023-02-16T21:10:16.877Z,84.34
2023-02-16T21:12:45.431Z,84.67
2023-02-16T21:15:12.614Z,85.02
2023-02-16T21:17:41.190Z,84.70
2023-02-16T21:20:08.362Z,85.76
2023-02-16T21:22:35.011Z,86.62
2023-02-16T21:25:10.176Z,86.82
2023-02-16T21:27:37.068Z,87.28
2023-02-16T21:30:05.522Z,87.39
2023-02-16T21:32:32.179Z,87.58
2023-02-16T21:34:58.752Z,87.44
2023-02-16T21:37:27.251Z,87.78
2023-02-16T21:40:12.449Z,87.80
2023-02-16T21:42:40.938Z,87.93
2023-02-16T21:45:14.116Z,88.40
2023-02-16T21:48:01.140Z,89.04
2023-02-16T21:50:29.362Z,88.94
2023-02-16T21:52:55.909Z,89.43
2023-02-16T21:55:43.400Z,89.54
2023-02-16T21:58:10.842Z,90.42
2023-02-16T22:00:41.290Z,90.43
2023-02-16T22:03:11.367Z,90.53
2023-02-16T22:05:38.270Z,90.40
2023-02-16T22:08:05.148Z,90.65
2023-02-16T22:10:31.791Z,90.79
2023-02-16T22:13:00.432Z,91.01
2023-02-16T22:15:27.344Z,91.21
2023-02-16T22:17:55.736Z,91.34
2023-02-16T22:20:22.559Z,92.04
2023-02-16T22:22:52.400Z,92.09
2023-02-16T22:25:19.551Z,92.06
2023-02-16T22:27:46.094Z,92.30
2023-02-16T22:30:12.855Z,92.56
2023-02-16T22:32:41.147Z,92.48
2023-02-16T22:35:07.909Z,91.43
2023-02-16T22:37:34.876Z,90.99
2023-02-16T22:40:07.238Z,90.42
2023-02-16T22:42:33.812Z,90.23
2023-02-16T22:45:00.286Z,90.09
2023-02-16T22:47:31.391Z,90.34
2023-02-16T22:49:57.880Z,90.85
2023-02-16T22:52:24.361Z,91.40
2023-02-16T22:54:53.483Z,91.87
2023-02-16T22:57:19.991Z,92.05
2023-02-16T22:59:46.475Z,92.37
2023-02-16T23:02:13.195Z,92.11
2023-02-16T23:04:41.245Z,91.83
2023-02-16T23:07:09.508Z,92.24
2023-02-16T23:09:43.692Z,92.50
2023-02-16T23:12:10.681Z,92.41
2023-02-16T23:14:38.113Z,92.40
2023-02-16T23:17:06.391Z,92.21
2023-02-16T23:19:33.421Z,92.57
2023-02-16T23:22:00.143Z,92.30
2023-02-16T23:24:27.064Z,92.25
2023-02-16T23:26:54.525Z,92.34
2023-02-16T23:29:21.437Z,92.51
2023-02-16T23:31:50.359Z,92.58
2023-02-16T23:34:19.293Z,92.68
2023-02-16T23:36:45.935Z,92.98
2023-02-16T23:39:18.338Z,93.06
2023-02-16T23:41:45.389Z,93.12
2023-02-16T23:44:14.495Z,93.11
2023-02-16T23:46:42.815Z,92.92
2023-02-16T23:49:09.425Z,92.78
2023-02-16T23:51:35.919Z,92.90
2023-02-16T23:54:09.031Z,92.96
2023-02-16T23:56:35.517Z,93.00
2023-02-16T23:59:02.168Z,92.96
